sensor_id;sensor_type;location;lat;lon;timestamp;temperature;humidity
70830;SHT30;58451;51.550;7.208;2024-01-27T00:01:09;3.41;77.93
70830;SHT30;58451;51.550;7.208;2024-01-27T00:02:41;3.41;77.90
70830;SHT30;58451;51.550;7.208;2024-01-27T00:04:13;3.38;77.95
70830;SHT30;58451;51.550;7.208;2024-01-27T00:05:45;3.37;77.93
70830;SHT30;58451;51.550;7.208;2024-01-27T00:07:17;3.36;77.95
70830;SHT30;58451;51.550;7.208;2024-01-27T00:08:49;3.33;77.97
70830;SHT30;58451;51.550;7.208;2024-01-27T00:10:21;3.31;78.08
70830;SHT30;58451;51.550;7.208;2024-01-27T00:11:53;3.30;78.10
70830;SHT30;58451;51.550;7.208;2024-01-27T00:13:25;3.29;78.12
70830;SHT30;58451;51.550;7.208;2024-01-27T00:14:57;3.26;78.12
70830;SHT30;58451;51.550;7.208;2024-01-27T00:16:29;3.25;78.48
70830;SHT30;58451;51.550;7.208;2024-01-27T00:18:01;3.25;78.43
70830;SHT30;58451;51.550;7.208;2024-01-27T00:19:33;3.22;78.33
70830;SHT30;58451;51.550;7.208;2024-01-27T00:21:10;3.21;78.38
70830;SHT30;58451;51.550;7.208;2024-01-27T00:22:42;3.21;78.42
70830;SHT30;58451;51.550;7.208;2024-01-27T00:24:13;3.20;78.43
70830;SHT30;58451;51.550;7.208;2024-01-27T00:25:45;3.19;78.37
70830;SHT30;58451;51.550;7.208;2024-01-27T00:27:17;3.17;78.50
70830;SHT30;58451;51.550;7.208;2024-01-27T00:28:49;3.16;78.53
70830;SHT30;58451;51.550;7.208;2024-01-27T00:30:21;3.16;78.53
70830;SHT30;58451;51.550;7.208;2024-01-27T00:31:53;3.14;78.52
70830;SHT30;58451;51.550;7.208;2024-01-27T00:33:26;3.13;78.55
70830;SHT30;58451;51.550;7.208;2024-01-27T00:34:58;3.13;78.65
70830;SHT30;58451;51.550;7.208;2024-01-27T00:36:30;3.13;78.60
70830;SHT30;58451;51.550;7.208;2024-01-27T00:38:01;3.13;78.67
70830;SHT30;58451;51.550;7.208;2024-01-27T00:39:34;3.13;78.70
70830;SHT30;58451;51.550;7.208;2024-01-27T00:41:06;3.11;78.70
70830;SHT30;58451;51.550;7.208;2024-01-27T00:42:38;3.11;78.67
70830;SHT30;58451;51.550;7.208;2024-01-27T00:44:10;3.08;78.68
70830;SHT30;58451;51.550;7.208;2024-01-27T00:45:42;3.07;78.70
70830;SHT30;58451;51.550;7.208;2024-01-27T00:47:14;3.05;78.65
70830;SHT30;58451;51.550;7.208;2024-01-27T00:48:46;3.06;78.68
70830;SHT30;58451;51.550;7.208;2024-01-27T00:50:18;3.03;78.67
70830;SHT30;58451;51.550;7.208;2024-01-27T00:51:50;3.01;78.70
70830;SHT30;58451;51.550;7.208;2024-01-27T00:53:22;2.99;78.70
70830;SHT30;58451;51.550;7.208;2024-01-27T00:54:54;2.97;78.70
70830;SHT30;58451;51.550;7.208;2024-01-27T00:56:25;2.96;78.77
70830;SHT30;58451;51.550;7.208;2024-01-27T00:57:57;2.94;78.80
70830;SHT30;58451;51.550;7.208;2024-01-27T00:59:29;2.95;78.93
70830;SHT30;58451;51.550;7.208;2024-01-27T01:01:01;2.92;79.02
70830;SHT30;58451;51.550;7.208;2024-01-27T01:02:33;2.92;78.98
70830;SHT30;58451;51.550;7.208;2024-01-27T01:04:19;2.91;78.92
70830;SHT30;58451;51.550;7.208;2024-01-27T01:05:52;2.89;78.93
70830;SHT30;58451;51.550;7.208;2024-01-27T01:07:24;2.87;79.00
70830;SHT30;58451;51.550;7.208;2024-01-27T01:08:56;2.86;79.03
70830;SHT30;58451;51.550;7.208;2024-01-27T01:10:28;2.86;79.10
70830;SHT30;58451;51.550;7.208;2024-01-27T01:12:00;2.86;79.10
70830;SHT30;58451;51.550;7.208;2024-01-27T01:13:32;2.86;79.10
70830;SHT30;58451;51.550;7.208;2024-01-27T01:15:04;2.85;79.10
70830;SHT30;58451;51.550;7.208;2024-01-27T01:16:37;2.84;79.08
70830;SHT30;58451;51.550;7.208;2024-01-27T01:18:09;2.83;79.10
70830;SHT30;58451;51.550;7.208;2024-01-27T01:19:41;2.81;79.13
70830;SHT30;58451;51.550;7.208;2024-01-27T01:21:13;2.79;79.15
70830;SHT30;58451;51.550;7.208;2024-01-27T01:22:45;2.79;79.17
70830;SHT30;58451;51.550;7.208;2024-01-27T01:24:17;2.77;79.18
70830;SHT30;58451;51.550;7.208;2024-01-27T01:25:49;2.78;79.20
70830;SHT30;58451;51.550;7.208;2024-01-27T01:27:21;2.76;79.27
70830;SHT30;58451;51.550;7.208;2024-01-27T01:28:53;2.76;79.33
70830;SHT30;58451;51.550;7.208;2024-01-27T01:30:25;2.76;79.38
70830;SHT30;58451;51.550;7.208;2024-01-27T01:31:57;2.76;79.37
70830;SHT30;58451;51.550;7.208;2024-01-27T01:33:29;2.74;79.33
70830;SHT30;58451;51.550;7.208;2024-01-27T01:35:01;2.74;79.32
70830;SHT30;58451;51.550;7.208;2024-01-27T01:36:33;2.73;79.32
70830;SHT30;58451;51.550;7.208;2024-01-27T01:38:04;2.72;79.37
70830;SHT30;58451;51.550;7.208;2024-01-27T01:39:36;2.70;79.38
70830;SHT30;58451;51.550;7.208;2024-01-27T01:41:08;2.68;79.43
70830;SHT30;58451;51.550;7.208;2024-01-27T01:42:40;2.67;79.43
70830;SHT30;58451;51.550;7.208;2024-01-27T01:44:13;2.68;79.45
70830;SHT30;58451;51.550;7.208;2024-01-27T01:45:44;2.68;79.43
70830;SHT30;58451;51.550;7.208;2024-01-27T01:47:16;2.67;79.48
70830;SHT30;58451;51.550;7.208;2024-01-27T01:48:48;2.66;79.50
70830;SHT30;58451;51.550;7.208;2024-01-27T01:50:21;2.66;79.52
70830;SHT30;58451;51.550;7.208;2024-01-27T01:51:53;2.65;79.52
70830;SHT30;58451;51.550;7.208;2024-01-27T01:53:25;2.63;79.55
70830;SHT30;58451;51.550;7.208;2024-01-27T01:54:57;2.63;79.58
70830;SHT30;58451;51.550;7.208;2024-01-27T01:56:29;2.61;79.53
70830;SHT30;58451;51.550;7.208;2024-01-27T01:58:01;2.60;79.55
70830;SHT30;58451;51.550;7.208;2024-01-27T01:59:33;2.57;79.62
70830;SHT30;58451;51.550;7.208;2024-01-27T02:01:05;2.54;79.68
70830;SHT30;58451;51.550;7.208;2024-01-27T02:02:37;2.53;79.67
70830;SHT30;58451;51.550;7.208;2024-01-27T02:04:09;2.53;79.77
70830;SHT30;58451;51.550;7.208;2024-01-27T02:05:43;2.52;79.80
70830;SHT30;58451;51.550;7.208;2024-01-27T02:07:15;2.51;79.77
70830;SHT30;58451;51.550;7.208;2024-01-27T02:08:47;2.51;79.80
70830;SHT30;58451;51.550;7.208;2024-01-27T02:10:19;2.52;79.93
70830;SHT30;58451;51.550;7.208;2024-01-27T02:11:51;2.53;79.93
70830;SHT30;58451;51.550;7.208;2024-01-27T02:13:23;2.52;79.97
70830;SHT30;58451;51.550;7.208;2024-01-27T02:14:56;2.52;79.93
70830;SHT30;58451;51.550;7.208;2024-01-27T02:16:28;2.53;79.98
70830;SHT30;58451;51.550;7.208;2024-01-27T02:17:59;2.53;79.95
70830;SHT30;58451;51.550;7.208;2024-01-27T02:19:32;2.53;80.03
70830;SHT30;58451;51.550;7.208;2024-01-27T02:21:04;2.54;80.07
70830;SHT30;58451;51.550;7.208;2024-01-27T02:22:36;2.54;80.03
70830;SHT30;58451;51.550;7.208;2024-01-27T02:24:08;2.55;80.02
70830;SHT30;58451;51.550;7.208;2024-01-27T02:25:41;2.54;79.97
70830;SHT30;58451;51.550;7.208;2024-01-27T02:27:13;2.53;79.98
70830;SHT30;58451;51.550;7.208;2024-01-27T02:28:44;2.54;80.18
70830;SHT30;58451;51.550;7.208;2024-01-27T02:30:16;2.54;80.17
70830;SHT30;58451;51.550;7.208;2024-01-27T02:31:50;2.52;80.20
70830;SHT30;58451;51.550;7.208;2024-01-27T02:33:23;2.52;80.18
70830;SHT30;58451;51.550;7.208;2024-01-27T02:34:55;2.51;80.25
70830;SHT30;58451;51.550;7.208;2024-01-27T02:36:28;2.50;80.22
70830;SHT30;58451;51.550;7.208;2024-01-27T02:38:00;2.49;80.22
70830;SHT30;58451;51.550;7.208;2024-01-27T02:39:32;2.48;80.15
70830;SHT30;58451;51.550;7.208;2024-01-27T02:41:04;2.48;80.23
70830;SHT30;58451;51.550;7.208;2024-01-27T02:42:36;2.46;80.22
70830;SHT30;58451;51.550;7.208;2024-01-27T02:44:09;2.47;80.30
70830;SHT30;58451;51.550;7.208;2024-01-27T02:45:40;2.46;80.23
70830;SHT30;58451;51.550;7.208;2024-01-27T02:47:12;2.44;80.25
70830;SHT30;58451;51.550;7.208;2024-01-27T02:48:44;2.43;80.28
70830;SHT30;58451;51.550;7.208;2024-01-27T02:50:17;2.42;80.27
70830;SHT30;58451;51.550;7.208;2024-01-27T02:51:50;2.42;80.27
70830;SHT30;58451;51.550;7.208;2024-01-27T02:53:22;2.40;80.25
70830;SHT30;58451;51.550;7.208;2024-01-27T02:54:54;2.39;80.20
70830;SHT30;58451;51.550;7.208;2024-01-27T02:56:26;2.38;80.22
70830;SHT30;58451;51.550;7.208;2024-01-27T02:57:58;2.38;80.27
70830;SHT30;58451;51.550;7.208;2024-01-27T02:59:30;2.38;80.25
70830;SHT30;58451;51.550;7.208;2024-01-27T03:01:02;2.37;80.30
70830;SHT30;58451;51.550;7.208;2024-01-27T03:02:34;2.36;80.32
70830;SHT30;58451;51.550;7.208;2024-01-27T03:04:06;2.34;80.33
70830;SHT30;58451;51.550;7.208;2024-01-27T03:05:38;2.33;80.35
70830;SHT30;58451;51.550;7.208;2024-01-27T03:07:10;2.31;80.37
70830;SHT30;58451;51.550;7.208;2024-01-27T03:08:42;2.29;80.35
70830;SHT30;58451;51.550;7.208;2024-01-27T03:10:14;2.27;80.32
70830;SHT30;58451;51.550;7.208;2024-01-27T03:11:45;2.22;80.33
70830;SHT30;58451;51.550;7.208;2024-01-27T03:13:17;2.20;80.33
70830;SHT30;58451;51.550;7.208;2024-01-27T03:14:50;2.18;80.43
70830;SHT30;58451;51.550;7.208;2024-01-27T03:16:23;2.15;80.43
70830;SHT30;58451;51.550;7.208;2024-01-27T03:17:55;2.14;80.40
70830;SHT30;58451;51.550;7.208;2024-01-27T03:19:27;2.13;80.50
70830;SHT30;58451;51.550;7.208;2024-01-27T03:20:59;2.11;80.50
70830;SHT30;58451;51.550;7.208;2024-01-27T03:22:31;2.10;80.52
70830;SHT30;58451;51.550;7.208;2024-01-27T03:24:03;2.09;80.50
70830;SHT30;58451;51.550;7.208;2024-01-27T03:25:36;2.06;80.53
70830;SHT30;58451;51.550;7.208;2024-01-27T03:27:08;2.03;80.50
70830;SHT30;58451;51.550;7.208;2024-01-27T03:28:39;2.02;80.52
70830;SHT30;58451;51.550;7.208;2024-01-27T03:30:12;2.00;80.62
70830;SHT30;58451;51.550;7.208;2024-01-27T03:31:44;1.99;80.63
70830;SHT30;58451;51.550;7.208;2024-01-27T03:33:16;1.98;80.60
70830;SHT30;58451;51.550;7.208;2024-01-27T03:34:48;1.97;80.63
70830;SHT30;58451;51.550;7.208;2024-01-27T03:36:20;1.95;80.68
70830;SHT30;58451;51.550;7.208;2024-01-27T03:37:52;1.94;80.67
70830;SHT30;58451;51.550;7.208;2024-01-27T03:39:25;1.94;80.63
70830;SHT30;58451;51.550;7.208;2024-01-27T03:40:57;1.93;80.63
70830;SHT30;58451;51.550;7.208;2024-01-27T03:42:31;1.91;80.70
70830;SHT30;58451;51.550;7.208;2024-01-27T03:44:03;1.89;80.73
70830;SHT30;58451;51.550;7.208;2024-01-27T03:45:35;1.87;80.78
70830;SHT30;58451;51.550;7.208;2024-01-27T03:47:06;1.87;80.80
70830;SHT30;58451;51.550;7.208;2024-01-27T03:48:38;1.85;80.80
70830;SHT30;58451;51.550;7.208;2024-01-27T03:50:10;1.83;80.80
70830;SHT30;58451;51.550;7.208;2024-01-27T03:51:42;1.80;80.80
70830;SHT30;58451;51.550;7.208;2024-01-27T03:53:14;1.80;80.82
70830;SHT30;58451;51.550;7.208;2024-01-27T03:54:46;1.77;80.87
70830;SHT30;58451;51.550;7.208;2024-01-27T03:56:18;1.76;80.98
70830;SHT30;58451;51.550;7.208;2024-01-27T03:57:50;1.76;80.92
70830;SHT30;58451;51.550;7.208;2024-01-27T03:59:21;1.77;80.97
70830;SHT30;58451;51.550;7.208;2024-01-27T04:00:53;1.75;80.95
70830;SHT30;58451;51.550;7.208;2024-01-27T04:02:25;1.74;80.93
70830;SHT30;58451;51.550;7.208;2024-01-27T04:03:57;1.73;81.00
70830;SHT30;58451;51.550;7.208;2024-01-27T04:05:29;1.72;81.00
70830;SHT30;58451;51.550;7.208;2024-01-27T04:07:02;1.70;81.00
70830;SHT30;58451;51.550;7.208;2024-01-27T04:08:35;1.69;81.00
70830;SHT30;58451;51.550;7.208;2024-01-27T04:10:07;1.68;81.02
70830;SHT30;58451;51.550;7.208;2024-01-27T04:11:39;1.68;81.07
70830;SHT30;58451;51.550;7.208;2024-01-27T04:13:11;1.66;81.10
70830;SHT30;58451;51.550;7.208;2024-01-27T04:14:43;1.66;81.13
70830;SHT30;58451;51.550;7.208;2024-01-27T04:16:15;1.64;81.10
70830;SHT30;58451;51.550;7.208;2024-01-27T04:17:47;1.63;81.18
70830;SHT30;58451;51.550;7.208;2024-01-27T04:19:19;1.61;81.20
70830;SHT30;58451;51.550;7.208;2024-01-27T04:20:51;1.59;81.23
70830;SHT30;58451;51.550;7.208;2024-01-27T04:22:23;1.59;81.30
70830;SHT30;58451;51.550;7.208;2024-01-27T04:23:54;1.59;81.27
70830;SHT30;58451;51.550;7.208;2024-01-27T04:25:28;1.56;81.28
70830;SHT30;58451;51.550;7.208;2024-01-27T04:27:00;1.56;81.35
70830;SHT30;58451;51.550;7.208;2024-01-27T04:28:34;1.55;81.33
70830;SHT30;58451;51.550;7.208;2024-01-27T04:30:06;1.54;81.30
70830;SHT30;58451;51.550;7.208;2024-01-27T04:31:39;1.53;81.40
70830;SHT30;58451;51.550;7.208;2024-01-27T04:33:12;1.53;81.67
70830;SHT30;58451;51.550;7.208;2024-01-27T04:34:44;1.54;81.63
70830;SHT30;58451;51.550;7.208;2024-01-27T04:36:24;1.53;81.62
70830;SHT30;58451;51.550;7.208;2024-01-27T04:38:03;1.52;81.60
70830;SHT30;58451;51.550;7.208;2024-01-27T04:39:35;1.51;81.63
70830;SHT30;58451;51.550;7.208;2024-01-27T04:41:09;1.51;81.65
70830;SHT30;58451;51.550;7.208;2024-01-27T04:42:41;1.50;81.60
70830;SHT30;58451;51.550;7.208;2024-01-27T04:44:12;1.49;81.68
70830;SHT30;58451;51.550;7.208;2024-01-27T04:45:44;1.49;81.63
70830;SHT30;58451;51.550;7.208;2024-01-27T04:47:16;1.49;81.60
70830;SHT30;58451;51.550;7.208;2024-01-27T04:48:48;1.49;81.67
70830;SHT30;58451;51.550;7.208;2024-01-27T04:50:20;1.50;81.80
70830;SHT30;58451;51.550;7.208;2024-01-27T04:51:52;1.49;81.78
70830;SHT30;58451;51.550;7.208;2024-01-27T04:53:24;1.50;81.77
70830;SHT30;58451;51.550;7.208;2024-01-27T04:54:56;1.51;81.78
70830;SHT30;58451;51.550;7.208;2024-01-27T04:56:28;1.50;81.75
70830;SHT30;58451;51.550;7.208;2024-01-27T04:58:00;1.47;81.73
70830;SHT30;58451;51.550;7.208;2024-01-27T04:59:32;1.48;81.80
70830;SHT30;58451;51.550;7.208;2024-01-27T05:01:04;1.50;81.80
70830;SHT30;58451;51.550;7.208;2024-01-27T05:02:36;1.49;81.83
70830;SHT30;58451;51.550;7.208;2024-01-27T05:04:08;1.49;81.82
70830;SHT30;58451;51.550;7.208;2024-01-27T05:05:43;1.49;81.92
70830;SHT30;58451;51.550;7.208;2024-01-27T05:07:15;1.49;81.88
70830;SHT30;58451;51.550;7.208;2024-01-27T05:08:47;1.48;81.90
70830;SHT30;58451;51.550;7.208;2024-01-27T05:10:19;1.49;81.95
70830;SHT30;58451;51.550;7.208;2024-01-27T05:11:50;1.49;81.88
70830;SHT30;58451;51.550;7.208;2024-01-27T05:13:25;1.49;81.92
70830;SHT30;58451;51.550;7.208;2024-01-27T05:14:57;1.48;81.98
70830;SHT30;58451;51.550;7.208;2024-01-27T05:16:29;1.49;81.97
70830;SHT30;58451;51.550;7.208;2024-01-27T05:18:01;1.48;81.95
70830;SHT30;58451;51.550;7.208;2024-01-27T05:19:33;1.48;82.07
70830;SHT30;58451;51.550;7.208;2024-01-27T05:21:05;1.46;82.07
70830;SHT30;58451;51.550;7.208;2024-01-27T05:22:37;1.47;82.10
70830;SHT30;58451;51.550;7.208;2024-01-27T05:24:08;1.49;82.12
70830;SHT30;58451;51.550;7.208;2024-01-27T05:25:40;1.47;82.05
70830;SHT30;58451;51.550;7.208;2024-01-27T05:27:12;1.47;82.02
70830;SHT30;58451;51.550;7.208;2024-01-27T05:28:44;1.45;82.08
70830;SHT30;58451;51.550;7.208;2024-01-27T05:30:16;1.45;82.05
70830;SHT30;58451;51.550;7.208;2024-01-27T05:31:49;1.44;82.07
70830;SHT30;58451;51.550;7.208;2024-01-27T05:33:21;1.43;82.12
70830;SHT30;58451;51.550;7.208;2024-01-27T05:34:52;1.45;82.10
70830;SHT30;58451;51.550;7.208;2024-01-27T05:36:24;1.44;82.15
70830;SHT30;58451;51.550;7.208;2024-01-27T05:37:56;1.45;82.25
70830;SHT30;58451;51.550;7.208;2024-01-27T05:39:28;1.46;82.33
70830;SHT30;58451;51.550;7.208;2024-01-27T05:41:01;1.46;82.32
70830;SHT30;58451;51.550;7.208;2024-01-27T05:42:36;1.46;82.22
70830;SHT30;58451;51.550;7.208;2024-01-27T05:44:08;1.46;82.25
70830;SHT30;58451;51.550;7.208;2024-01-27T05:45:40;1.46;82.32
70830;SHT30;58451;51.550;7.208;2024-01-27T05:47:12;1.45;82.25
70830;SHT30;58451;51.550;7.208;2024-01-27T05:48:44;1.45;82.30
70830;SHT30;58451;51.550;7.208;2024-01-27T05:50:16;1.46;82.28
70830;SHT30;58451;51.550;7.208;2024-01-27T05:51:48;1.45;82.30
70830;SHT30;58451;51.550;7.208;2024-01-27T05:53:21;1.44;82.33
70830;SHT30;58451;51.550;7.208;2024-01-27T05:54:54;1.45;82.42
70830;SHT30;58451;51.550;7.208;2024-01-27T05:56:25;1.46;82.48
70830;SHT30;58451;51.550;7.208;2024-01-27T05:57:57;1.47;82.50
70830;SHT30;58451;51.550;7.208;2024-01-27T05:59:29;1.47;82.38
70830;SHT30;58451;51.550;7.208;2024-01-27T06:01:01;1.46;82.38
70830;SHT30;58451;51.550;7.208;2024-01-27T06:02:33;1.45;82.35
70830;SHT30;58451;51.550;7.208;2024-01-27T06:04:05;1.45;82.37
70830;SHT30;58451;51.550;7.208;2024-01-27T06:05:37;1.45;82.33
70830;SHT30;58451;51.550;7.208;2024-01-27T06:07:09;1.43;82.33
70830;SHT30;58451;51.550;7.208;2024-01-27T06:08:41;1.41;82.32
70830;SHT30;58451;51.550;7.208;2024-01-27T06:10:13;1.40;82.42
70830;SHT30;58451;51.550;7.208;2024-01-27T06:11:46;1.40;82.40
70830;SHT30;58451;51.550;7.208;2024-01-27T06:13:18;1.40;82.45
70830;SHT30;58451;51.550;7.208;2024-01-27T06:14:50;1.40;82.47
70830;SHT30;58451;51.550;7.208;2024-01-27T06:16:22;1.41;82.52
70830;SHT30;58451;51.550;7.208;2024-01-27T06:17:54;1.42;82.52
70830;SHT30;58451;51.550;7.208;2024-01-27T06:19:27;1.40;82.45
70830;SHT30;58451;51.550;7.208;2024-01-27T06:20:59;1.38;82.40
70830;SHT30;58451;51.550;7.208;2024-01-27T06:22:31;1.36;82.40
70830;SHT30;58451;51.550;7.208;2024-01-27T06:24:04;1.35;82.43
70830;SHT30;58451;51.550;7.208;2024-01-27T06:25:37;1.33;82.42
70830;SHT30;58451;51.550;7.208;2024-01-27T06:27:09;1.32;82.38
70830;SHT30;58451;51.550;7.208;2024-01-27T06:28:42;1.29;82.33
70830;SHT30;58451;51.550;7.208;2024-01-27T06:30:14;1.27;82.33
70830;SHT30;58451;51.550;7.208;2024-01-27T06:31:47;1.25;82.30
70830;SHT30;58451;51.550;7.208;2024-01-27T06:33:19;1.23;82.32
70830;SHT30;58451;51.550;7.208;2024-01-27T06:34:51;1.21;82.30
70830;SHT30;58451;51.550;7.208;2024-01-27T06:36:23;1.19;82.33
70830;SHT30;58451;51.550;7.208;2024-01-27T06:37:57;1.16;82.32
70830;SHT30;58451;51.550;7.208;2024-01-27T06:39:29;1.15;82.30
70830;SHT30;58451;51.550;7.208;2024-01-27T06:41:01;1.14;82.32
70830;SHT30;58451;51.550;7.208;2024-01-27T06:42:35;1.12;82.33
70830;SHT30;58451;51.550;7.208;2024-01-27T06:44:07;1.12;82.42
70830;SHT30;58451;51.550;7.208;2024-01-27T06:45:39;1.14;82.47
70830;SHT30;58451;51.550;7.208;2024-01-27T06:47:12;1.13;82.43
70830;SHT30;58451;51.550;7.208;2024-01-27T06:48:43;1.12;82.40
70830;SHT30;58451;51.550;7.208;2024-01-27T06:50:15;1.13;82.45
70830;SHT30;58451;51.550;7.208;2024-01-27T06:51:47;1.11;82.47
70830;SHT30;58451;51.550;7.208;2024-01-27T06:53:19;1.10;82.50
70830;SHT30;58451;51.550;7.208;2024-01-27T06:54:51;1.11;82.50
70830;SHT30;58451;51.550;7.208;2024-01-27T06:56:23;1.13;82.52
70830;SHT30;58451;51.550;7.208;2024-01-27T06:57:55;1.13;82.53
70830;SHT30;58451;51.550;7.208;2024-01-27T06:59:27;1.13;82.60
70830;SHT30;58451;51.550;7.208;2024-01-27T07:01:01;1.14;82.60
70830;SHT30;58451;51.550;7.208;2024-01-27T07:02:43;1.13;82.57
70830;SHT30;58451;51.550;7.208;2024-01-27T07:04:18;1.13;82.57
70830;SHT30;58451;51.550;7.208;2024-01-27T07:05:50;1.12;82.58
70830;SHT30;58451;51.550;7.208;2024-01-27T07:07:24;1.12;82.57
70830;SHT30;58451;51.550;7.208;2024-01-27T07:08:58;1.12;82.60
70830;SHT30;58451;51.550;7.208;2024-01-27T07:10:30;1.11;82.58
70830;SHT30;58451;51.550;7.208;2024-01-27T07:12:03;1.09;82.60
70830;SHT30;58451;51.550;7.208;2024-01-27T07:13:35;1.09;82.58
70830;SHT30;58451;51.550;7.208;2024-01-27T07:15:07;1.08;82.57
70830;SHT30;58451;51.550;7.208;2024-01-27T07:16:39;1.07;82.58
70830;SHT30;58451;51.550;7.208;2024-01-27T07:18:11;1.06;82.58
70830;SHT30;58451;51.550;7.208;2024-01-27T07:19:43;1.05;82.58
70830;SHT30;58451;51.550;7.208;2024-01-27T07:21:16;1.02;82.53
70830;SHT30;58451;51.550;7.208;2024-01-27T07:22:48;1.03;82.55
70830;SHT30;58451;51.550;7.208;2024-01-27T07:24:20;1.02;82.55
70830;SHT30;58451;51.550;7.208;2024-01-27T07:25:52;1.03;82.58
70830;SHT30;58451;51.550;7.208;2024-01-27T07:27:24;1.03;82.60
70830;SHT30;58451;51.550;7.208;2024-01-27T07:28:56;1.05;82.60
70830;SHT30;58451;51.550;7.208;2024-01-27T07:30:29;1.05;82.60
70830;SHT30;58451;51.550;7.208;2024-01-27T07:32:02;1.06;82.60
70830;SHT30;58451;51.550;7.208;2024-01-27T07:33:34;1.09;82.70
70830;SHT30;58451;51.550;7.208;2024-01-27T07:35:06;1.13;82.73
70830;SHT30;58451;51.550;7.208;2024-01-27T07:36:39;1.16;82.73
70830;SHT30;58451;51.550;7.208;2024-01-27T07:38:11;1.19;82.87
70830;SHT30;58451;51.550;7.208;2024-01-27T07:39:43;1.23;82.93
70830;SHT30;58451;51.550;7.208;2024-01-27T07:41:15;1.28;82.95
70830;SHT30;58451;51.550;7.208;2024-01-27T07:42:47;1.32;82.87
70830;SHT30;58451;51.550;7.208;2024-01-27T07:44:18;1.35;82.83
70830;SHT30;58451;51.550;7.208;2024-01-27T07:45:50;1.38;82.83
70830;SHT30;58451;51.550;7.208;2024-01-27T07:47:24;1.41;82.75
70830;SHT30;58451;51.550;7.208;2024-01-27T07:48:56;1.44;82.80
70830;SHT30;58451;51.550;7.208;2024-01-27T07:50:28;1.47;82.80
70830;SHT30;58451;51.550;7.208;2024-01-27T07:52:00;1.50;82.75
70830;SHT30;58451;51.550;7.208;2024-01-27T07:53:32;1.53;82.73
70830;SHT30;58451;51.550;7.208;2024-01-27T07:55:05;1.56;82.70
70830;SHT30;58451;51.550;7.208;2024-01-27T07:56:37;1.59;82.73
70830;SHT30;58451;51.550;7.208;2024-01-27T07:58:09;1.63;82.68
70830;SHT30;58451;51.550;7.208;2024-01-27T07:59:41;1.66;82.67
70830;SHT30;58451;51.550;7.208;2024-01-27T08:01:16;1.68;82.67
70830;SHT30;58451;51.550;7.208;2024-01-27T08:02:50;1.71;82.62
70830;SHT30;58451;51.550;7.208;2024-01-27T08:04:23;1.74;82.62
70830;SHT30;58451;51.550;7.208;2024-01-27T08:05:54;1.77;82.60
70830;SHT30;58451;51.550;7.208;2024-01-27T08:07:27;1.80;82.53
70830;SHT30;58451;51.550;7.208;2024-01-27T08:08:59;1.85;82.58
70830;SHT30;58451;51.550;7.208;2024-01-27T08:10:31;1.88;82.57
70830;SHT30;58451;51.550;7.208;2024-01-27T08:12:03;1.93;82.57
70830;SHT30;58451;51.550;7.208;2024-01-27T08:13:35;1.97;82.57
70830;SHT30;58451;51.550;7.208;2024-01-27T08:15:07;2.00;82.53
70830;SHT30;58451;51.550;7.208;2024-01-27T08:16:40;2.06;82.57
70830;SHT30;58451;51.550;7.208;2024-01-27T08:18:12;2.11;82.52
70830;SHT30;58451;51.550;7.208;2024-01-27T08:19:44;2.15;82.43
70830;SHT30;58451;51.550;7.208;2024-01-27T08:21:16;2.20;82.42
70830;SHT30;58451;51.550;7.208;2024-01-27T08:22:48;2.25;82.47
70830;SHT30;58451;51.550;7.208;2024-01-27T08:24:22;2.30;82.48
70830;SHT30;58451;51.550;7.208;2024-01-27T08:25:56;2.36;82.42
70830;SHT30;58451;51.550;7.208;2024-01-27T08:27:27;2.40;82.42
70830;SHT30;58451;51.550;7.208;2024-01-27T08:28:59;2.44;82.35
70830;SHT30;58451;51.550;7.208;2024-01-27T08:30:31;2.51;82.43
70830;SHT30;58451;51.550;7.208;2024-01-27T08:32:03;2.56;82.43
70830;SHT30;58451;51.550;7.208;2024-01-27T08:33:35;2.62;82.43
70830;SHT30;58451;51.550;7.208;2024-01-27T08:35:07;2.68;82.55
70830;SHT30;58451;51.550;7.208;2024-01-27T08:36:42;2.73;82.50
70830;SHT30;58451;51.550;7.208;2024-01-27T08:38:14;2.79;82.42
70830;SHT30;58451;51.550;7.208;2024-01-27T08:39:46;2.85;82.27
70830;SHT30;58451;51.550;7.208;2024-01-27T08:41:18;2.91;82.15
70830;SHT30;58451;51.550;7.208;2024-01-27T08:42:50;2.99;81.97
70830;SHT30;58451;51.550;7.208;2024-01-27T08:44:22;3.06;82.07
70830;SHT30;58451;51.550;7.208;2024-01-27T08:45:54;3.12;82.00
70830;SHT30;58451;51.550;7.208;2024-01-27T08:47:28;3.18;81.80
70830;SHT30;58451;51.550;7.208;2024-01-27T08:49:00;3.26;81.58
70830;SHT30;58451;51.550;7.208;2024-01-27T08:50:32;3.32;81.30
70830;SHT30;58451;51.550;7.208;2024-01-27T08:52:04;3.39;81.55
70830;SHT30;58451;51.550;7.208;2024-01-27T08:53:36;3.47;81.52
70830;SHT30;58451;51.550;7.208;2024-01-27T08:55:09;3.54;81.45
70830;SHT30;58451;51.550;7.208;2024-01-27T08:56:41;3.60;81.52
70830;SHT30;58451;51.550;7.208;2024-01-27T08:58:13;3.68;81.68
70830;SHT30;58451;51.550;7.208;2024-01-27T08:59:46;3.75;81.45
70830;SHT30;58451;51.550;7.208;2024-01-27T09:01:18;3.81;81.48
70830;SHT30;58451;51.550;7.208;2024-01-27T09:02:50;3.88;81.35
70830;SHT30;58451;51.550;7.208;2024-01-27T09:04:23;3.95;81.27
70830;SHT30;58451;51.550;7.208;2024-01-27T09:05:55;4.03;81.33
70830;SHT30;58451;51.550;7.208;2024-01-27T09:07:28;4.10;81.32
70830;SHT30;58451;51.550;7.208;2024-01-27T09:09:00;4.16;81.18
70830;SHT30;58451;51.550;7.208;2024-01-27T09:10:32;4.22;80.77
70830;SHT30;58451;51.550;7.208;2024-01-27T09:12:04;4.30;80.53
70830;SHT30;58451;51.550;7.208;2024-01-27T09:13:36;4.36;80.65
70830;SHT30;58451;51.550;7.208;2024-01-27T09:15:08;4.40;80.25
70830;SHT30;58451;51.550;7.208;2024-01-27T09:16:40;4.48;79.92
70830;SHT30;58451;51.550;7.208;2024-01-27T09:18:13;4.55;79.75
70830;SHT30;58451;51.550;7.208;2024-01-27T09:19:46;4.61;79.48
70830;SHT30;58451;51.550;7.208;2024-01-27T09:21:19;4.68;79.02
70830;SHT30;58451;51.550;7.208;2024-01-27T09:22:59;4.75;79.45
70830;SHT30;58451;51.550;7.208;2024-01-27T09:24:31;4.82;79.55
70830;SHT30;58451;51.550;7.208;2024-01-27T09:26:04;4.89;79.32
70830;SHT30;58451;51.550;7.208;2024-01-27T09:27:36;4.93;77.85
70830;SHT30;58451;51.550;7.208;2024-01-27T09:29:08;5.01;78.10
70830;SHT30;58451;51.550;7.208;2024-01-27T09:30:40;5.07;78.42
70830;SHT30;58451;51.550;7.208;2024-01-27T09:32:12;5.14;77.75
70830;SHT30;58451;51.550;7.208;2024-01-27T09:33:44;5.21;77.33
70830;SHT30;58451;51.550;7.208;2024-01-27T09:35:16;5.29;77.67
70830;SHT30;58451;51.550;7.208;2024-01-27T09:36:48;5.37;78.15
70830;SHT30;58451;51.550;7.208;2024-01-27T09:38:20;5.45;77.68
70830;SHT30;58451;51.550;7.208;2024-01-27T09:39:52;5.53;78.32
70830;SHT30;58451;51.550;7.208;2024-01-27T09:41:24;5.61;78.18
70830;SHT30;58451;51.550;7.208;2024-01-27T09:43:06;5.71;78.05
70830;SHT30;58451;51.550;7.208;2024-01-27T09:44:44;5.77;76.73
70830;SHT30;58451;51.550;7.208;2024-01-27T09:46:20;5.88;77.27
70830;SHT30;58451;51.550;7.208;2024-01-27T09:47:52;5.94;77.37
70830;SHT30;58451;51.550;7.208;2024-01-27T09:49:29;6.05;77.70
70830;SHT30;58451;51.550;7.208;2024-01-27T09:51:03;6.09;76.88
70830;SHT30;58451;51.550;7.208;2024-01-27T09:52:36;6.14;75.62